Southern California Logo

Santa Barbara, CA Condo Real Estate Listings

77 Total Real Estate Listings * Click on table heading to sort
Date Posted Property Type Style Address Price Living Area Lot Size Price/Sq Ft.
2018-11-12 Condo Contemporary 1350 Plaza Pacifica Santa Barbara, CA 93108 $3,150,000 1,694 sq. ft. 2,178 sq. ft. $1,860
2018-11-09 Condo High or Mid-Rise Condo 1220 Coast Village Road Santa Barbara, CA 93108 $875,000 1,209 sq. ft. 1,307 sq. ft. $724
2018-11-01 Condo Spanish 531 Chapala Street Santa Barbara, CA 93101 $2,595,000 2,528 sq. ft. $1,026
2018-09-15 Condo 1624 San Andres Street Santa Barbara, CA 93101 $699,000 1,040 sq. ft. 6,970 sq. ft. $672
2018-08-30 Condo Spanish 18 Victoria Street Santa Barbara, CA 93101 $995,000 1,094 sq. ft. $910
2018-07-05 Condo Cottage 400 Pedregosa Street Santa Barbara, CA 93103 $1,254,000 2,232 sq. ft. 1,742 sq. ft. $562
2018-07-03 Condo Mediterranean 1220 Coast Village Road Santa Barbara, CA 93108 $975,000 1,181 sq. ft. 1,307 sq. ft. $826
2018-06-01 Condo Mediterranean 1030 Canon Perdido Street Santa Barbara, CA 93103 $1,282,500 2,240 sq. ft. 2,178 sq. ft. $573
2018-05-07 Condo Spanish 18 Victoria Street Santa Barbara, CA 93101 $995,000 1,281 sq. ft. $777
2017-08-28 Condo Contemporary 1349 Plaza Pacifica Santa Barbara, CA 93108 $3,895,000 2,290 sq. ft. 2,614 sq. ft. $1,701
2017-06-16 Condo Contemporary; Spanish 1701 Anacapa St Santa Barbara, CA 93101 $559,000 975 sq. ft. $573
2017-06-14 Condo Craftsman 4022 Primavera Rd Santa Barbara, CA 93110 $655,000 896 sq. ft. $731
2017-06-14 Condo Cal. Cottage 30 Salinas St Santa Barbara, CA 93103 $879,000 1,266 sq. ft. $694
2017-06-14 Condo Townhouse 4990 Ponderosa Way Santa Barbara, CA 93111 $569,900 1,104 sq. ft. $516
2017-06-14 Condo 2643 State St Santa Barbara, CA 93105 $499,500 1,009 sq. ft. $495
2017-06-14 Condo Craftsman 1226 Castillo St Santa Barbara, CA 93101 $680,000 918 sq. ft. $741
2017-06-14 Condo Contemporary 2617 State St Santa Barbara, CA 93105 $599,900 1,392 sq. ft. $431
2017-06-14 Condo 5290 Overpass Rd Santa Barbara, CA 93111 $455,000 885 sq. ft. $514
2017-06-08 Condo Medit 26 Calle Crespis Santa Barbara, CA 93105 $1,039,000 1,418 sq. ft. $733
2017-06-08 Condo Craftsman 325 Ladera St Santa Barbara, CA 93101 $569,900 1,090 sq. ft. $523
2017-06-07 Condo Craftsman; Townhouse 828 Bath St Santa Barbara, CA 93101 $990,000 1,381 sq. ft. $717
2017-06-07 Condo 87 Seaview Dr Santa Barbara, CA 93108 $1,985,000 1,769 sq. ft. $1,122
2017-06-05 Condo Medit 220 Yanonali St Santa Barbara, CA 93101 $1,425,000 1,954 sq. ft. $729
2017-06-02 Condo Spanish 5052 Calle Real Santa Barbara, CA 93111 $685,000 1,592 sq. ft. $430
2017-06-01 Condo Medit 401 Camino De La Aldea Santa Barbara, CA 93111 $675,000 1,100 sq. ft. 2,614 sq. ft. $614
2017-05-29 Condo Apt. Style 3914 Via Lucero Santa Barbara, CA 93110 $539,000 1,030 sq. ft. $523
2017-05-25 Condo Spanish 18 Victoria St Santa Barbara, CA 93101 $1,399,000 1,052 sq. ft. $1,330
2017-05-23 Condo Medit 4477 Shadow Hills Blvd Santa Barbara, CA 93105 $824,500 1,716 sq. ft. $480
2017-05-19 Condo Cape Cod 2128 Modoc Rd Santa Barbara, CA 93101 $749,000 1,601 sq. ft. $468
2017-05-17 Condo Spanish 601 Micheltorena Street Santa Barbara, CA 93103 $1,550,000 1,680 sq. ft. $923
2017-05-16 Condo Spanish 130 Alamar Ave Santa Barbara, CA 93105 $587,000 1,104 sq. ft. $532
2017-05-15 Condo Contemporary 60 Seaview Dr Santa Barbara, CA 93108 $2,250,000 1,724 sq. ft. $1,305
2017-05-11 Condo Medit 130 Anacapa St Santa Barbara, CA 93101 $3,195,000 3,266 sq. ft. $978
2017-05-11 Condo Medit 128 Anacapa St Santa Barbara, CA 93101 $3,495,000 3,688 sq. ft. $948
2017-05-10 Condo 1118 Milpas St Santa Barbara, CA 93103 $675,000 1,352 sq. ft. $499
2017-05-10 Condo Medit 126 Por La Mar Cir Santa Barbara, CA 93103 $605,000 700 sq. ft. 871 sq. ft. $864
2017-05-02 Condo Townhouse 663 Del Parque Santa Barbara, CA 93103 $1,600,000 1,350 sq. ft. 1,307 sq. ft. $1,185
2017-04-28 Condo Apt. Style 50 Barranca Ave Santa Barbara, CA 93109 $925,000 1,443 sq. ft. $641
2017-04-26 Condo Contemporary; Medit 618 Anacapa St Santa Barbara, CA 93101 $1,795,000 1,815 sq. ft. $989
2017-04-25 Condo Spanish 18 Victoria St Santa Barbara, CA 93101 $1,325,000 1,281 sq. ft. $1,034
2017-04-25 Condo Medit; Townhouse 1319 Plaza Pacifica Santa Barbara, CA 93108 $5,250,000 2,055 sq. ft. $2,555
2017-04-19 Condo Spanish 631 Ortega St Santa Barbara, CA 93101 $575,000 1,070 sq. ft. $537
2017-04-19 Condo Medit 928 Olive St Santa Barbara, CA 93101 $1,895,000 2,760 sq. ft. $687
2017-04-18 Condo Contemporary; Medit 401 Chapala St Santa Barbara, CA 93101 $1,235,000
2017-04-17 Condo Spanish 2633 State Street Santa Barbara, CA 93105 $599,999 1,392 sq. ft. $431
2017-04-17 Condo Medit 425 Por La Mar Cir Santa Barbara, CA 93103 $570,000 700 sq. ft. 871 sq. ft. $814
2017-04-05 Condo 4326 Modoc Road Santa Barbara, CA 93110 $789,000 1,493 sq. ft. 1,742 sq. ft. $528
2017-04-05 Condo Spanish 4326 Modoc Rd Santa Barbara, CA 93110 $789,000 1,493 sq. ft. $528
2017-04-04 Condo Medit 1511 Olive St Santa Barbara, CA 93101 $1,695,000 2,255 sq. ft. $752
2017-04-03 Condo Contemporary; Townhouse 984 Miramonte Dr Santa Barbara, CA 93109 $615,000 1,104 sq. ft. $557
2017-04-02 Condo Townhouse 1382 Plaza Pacifica Santa Barbara, CA 93108 $2,225,000 $1,453
2017-03-19 Condo Spanish 741 Calle De Los Amigos Santa Barbara, CA 93105 $685,000 1,447 sq. ft. $473
2017-03-16 Condo Spanish 2084 Cliff Dr Santa Barbara, CA 93109 $775,000 1,582 sq. ft. $490
2017-03-14 Condo Townhouse 659 Del Parque Dr Santa Barbara, CA 93103 $1,250,000 1,374 sq. ft. 1,307 sq. ft. $910
2017-03-08 Condo Contemporary; Townhouse 1308 Plaza De Sonadores Santa Barbara, CA 93108 $1,380,000 806 sq. ft. $1,712
2017-03-08 Condo Medit 555 Arrellaga St Santa Barbara, CA 93103 $865,000 1,345 sq. ft. $643
2017-02-27 Condo Craftsman 1417 Olive St Santa Barbara, CA 93101 $1,270,000 1,637 sq. ft. $776
2017-02-24 Condo Medit 422 Orilla Del Mar Santa Barbara, CA 93103 $1,695,000 1,428 sq. ft. $1,187
2017-02-24 Condo 1308 Plaza Pacifica Santa Barbara, CA 93108 $1,385,000
2017-02-22 Condo Townhouse 325 Ladera St Santa Barbara, CA 93101 $579,000 1,090 sq. ft. $531
2017-02-17 Condo Medit 105 De La Guerra St Santa Barbara, CA 93101 $1,495,000 1,908 sq. ft. $784
2017-02-17 Condo Medit 281 Calle Esperanza Santa Barbara, CA 93105 $890,000 1,499 sq. ft. $594
2017-01-24 Condo Spanish 2635 State St Santa Barbara, CA 93105 $699,000
2017-01-18 Condo Spanish 18 Victoria St Santa Barbara, CA 93101 $895,000 1,043 sq. ft. $858
2017-01-04 Condo Spanish; Townhouse 26 Barranca Ave Santa Barbara, CA 93109 $1,265,000 1,232 sq. ft. $1,027
2016-12-30 Condo Contemporary 1359 Plaza De Sonadores Santa Barbara, CA 93108 $1,395,000 806 sq. ft. $1,731
2016-12-16 Condo 531 Chapala Street Santa Barbara, CA 93101 $2,295,000 2,760 sq. ft. 2,178 sq. ft. $832
2016-12-15 Condo Contemporary; Medit; Spanish 531 Chapala St Santa Barbara, CA 93101 $2,195,000 2,760 sq. ft. $795
2016-12-10 Condo Contemporary 1389 Plaza Pacifica Santa Barbara, CA 93108 $5,550,000 1,667 sq. ft. $3,329
2016-11-11 Condo Contemporary 262 Por La Mar Cir Santa Barbara, CA 93103 $2,100,000 1,609 sq. ft. $1,305
2016-10-19 Condo Contemporary 18 Victoria St Santa Barbara, CA 93101 $1,699,000 1,277 sq. ft. $1,330
2016-07-11 Condo Contemporary 1307 Plaza Pacifica Santa Barbara, CA 93108 $2,950,000 938 sq. ft. $3,145
2016-05-12 Condo Spanish 121 De La Guerra St Santa Barbara, CA 93101 $1,395,000 1,711 sq. ft. $815
2016-05-02 Condo Medit; Spanish; Townhouse 87 Depot Rd Santa Barbara, CA 93108 $1,350,000 1,929 sq. ft. $700
2016-03-09 Condo Spanish 18 Victoria Street Santa Barbara, CA 93101 $1,125,000 1,103 sq. ft. $1,020
2011-01-10 Condo Apt. Style 20 Barranca Ave Santa Barbara, CA 93109 $999,500 1,223 sq. ft. $817
2010-11-17 Condo Contemporary 43 Seaview Dr Santa Barbara, CA 93108 $2,027,000 1,782 sq. ft. 436 sq. ft. $1,137